createdAt,value
2023-02-28T00:00:39.235Z,95893.4
2023-02-28T00:01:41.212Z,95895.8
2023-02-28T00:02:43.720Z,95893.7
2023-02-28T00:03:46.266Z,95891.8
2023-02-28T00:04:48.835Z,95889.6
2023-02-28T00:05:51.063Z,95887
2023-02-28T00:06:53.747Z,95885.5
2023-02-28T00:07:56.068Z,95885.7
2023-02-28T00:08:58.312Z,95888.5
2023-02-28T00:10:00.539Z,95880.2
2023-02-28T00:11:03.356Z,95880.8
2023-02-28T00:12:05.934Z,95884.3
2023-02-28T00:13:08.474Z,95878.3
2023-02-28T00:14:10.706Z,95878.6
2023-02-28T00:15:12.959Z,95874.7
2023-02-28T00:16:15.174Z,95877
2023-02-28T00:17:17.357Z,95877.8
2023-02-28T00:18:19.847Z,95875.7
2023-02-28T00:19:22.360Z,95880.2
2023-02-28T00:20:24.908Z,95876.2
2023-02-28T00:21:28.263Z,95872
2023-02-28T00:22:31.519Z,95877.7
2023-02-28T00:23:34.050Z,95876.4
2023-02-28T00:24:35.992Z,95872.8
2023-02-28T00:25:38.212Z,95872.4
2023-02-28T00:26:40.714Z,95877.8
2023-02-28T00:27:43.227Z,95875.5
2023-02-28T00:28:45.717Z,95878.9
2023-02-28T00:29:48.206Z,95881.9
2023-02-28T00:30:51.088Z,95879.3
2023-02-28T00:31:53.874Z,95876.1
2023-02-28T00:32:56.426Z,95873.6
2023-02-28T00:33:58.899Z,95878.4
2023-02-28T00:35:01.419Z,95873.5
2023-02-28T00:36:04.015Z,95871.1
2023-02-28T00:37:06.515Z,95875.6
2023-02-28T00:38:09.096Z,95876.6
2023-02-28T00:39:11.617Z,95873.6
2023-02-28T00:40:14.244Z,95871.6
2023-02-28T00:41:16.488Z,95871.1
2023-02-28T00:42:18.999Z,95871.4
2023-02-28T00:43:21.229Z,95873.1
2023-02-28T00:44:23.735Z,95871.8
2023-02-28T00:45:25.666Z,95870.1
2023-02-28T00:46:28.432Z,95872.2
2023-02-28T00:47:31.336Z,95869.2
2023-02-28T00:48:34.399Z,95871.6
2023-02-28T00:49:36.598Z,95866.1
2023-02-28T00:50:38.827Z,95872
2023-02-28T00:51:41.326Z,95868.7
2023-02-28T00:52:43.828Z,95874.8
2023-02-28T00:53:46.438Z,95873.7
2023-02-28T00:54:49.017Z,95873.7
2023-02-28T00:55:51.527Z,95871.6
2023-02-28T00:56:53.777Z,95872.5
2023-02-28T00:57:55.731Z,95869.9
2023-02-28T00:58:58.214Z,95873.4
2023-02-28T01:00:00.211Z,95867.8
2023-02-28T01:01:02.838Z,95873.7
2023-02-28T01:02:05.544Z,95865.9
2023-02-28T01:03:08.058Z,95870.6
2023-02-28T01:04:10.573Z,95867.2
2023-02-28T01:05:12.903Z,95864.1
2023-02-28T01:06:15.455Z,95864.4
2023-02-28T01:07:17.980Z,95865.5
2023-02-28T01:08:20.467Z,95862.2
2023-02-28T01:09:23.051Z,95864.6
2023-02-28T01:10:25.439Z,95865.7
2023-02-28T01:11:29.372Z,95856
2023-02-28T01:12:32.423Z,95858
2023-02-28T01:13:34.659Z,95858.3
2023-02-28T01:14:37.193Z,95857
2023-02-28T01:15:40.017Z,95856.4
2023-02-28T01:16:42.252Z,95854.6
2023-02-28T01:17:44.486Z,95855.1
2023-02-28T01:18:47.004Z,95856.8
2023-02-28T01:19:48.669Z,95856.5
2023-02-28T01:20:50.973Z,95856.2
2023-02-28T01:21:53.205Z,95858
2023-02-28T01:22:55.737Z,95852.2
2023-02-28T01:23:58.226Z,95856.2
2023-02-28T01:25:00.541Z,95854.7
2023-02-28T01:26:03.102Z,95851.4
2023-02-28T01:27:05.609Z,95853.7
2023-02-28T01:28:08.272Z,95846.2
2023-02-28T01:29:10.791Z,95850.8
2023-02-28T01:30:13.035Z,95853.9
2023-02-28T01:31:15.540Z,95849.9
2023-02-28T01:32:18.056Z,95848.8
2023-02-28T01:33:20.430Z,95846.7
2023-02-28T01:34:22.966Z,95849.3
2023-02-28T01:35:25.472Z,95844.5
2023-02-28T01:36:27.691Z,95842.4
2023-02-28T01:37:30.175Z,95848.2
2023-02-28T01:38:32.670Z,95846.5
2023-02-28T01:39:34.877Z,95843.1
2023-02-28T01:40:37.521Z,95842.7
2023-02-28T01:41:39.782Z,95846.4
2023-02-28T01:42:42.294Z,95842.7
2023-02-28T01:43:44.482Z,95839.6
2023-02-28T01:44:47.029Z,95839
2023-02-28T01:45:49.542Z,95838.1
2023-02-28T01:46:51.763Z,95839.5
2023-02-28T01:47:54.274Z,95840.9
2023-02-28T01:48:56.621Z,95837.7
2023-02-28T01:49:59.108Z,95839.6
2023-02-28T01:51:01.637Z,95841.8
2023-02-28T01:52:04.150Z,95836.2
2023-02-28T01:53:06.069Z,95834.3
2023-02-28T01:54:08.547Z,95838.1
2023-02-28T01:55:11.073Z,95836.3
2023-02-28T01:56:13.672Z,95835.1
2023-02-28T01:57:16.218Z,95835
2023-02-28T01:58:18.704Z,95828.7
2023-02-28T01:59:21.207Z,95833.8
2023-02-28T02:00:23.700Z,95833.5
2023-02-28T02:01:25.920Z,95833.7
2023-02-28T02:02:28.399Z,95837.4
2023-02-28T02:03:30.974Z,95834.6
2023-02-28T02:04:33.507Z,95835.8
2023-02-28T02:05:36.037Z,95827
2023-02-28T02:06:38.582Z,95831.5
2023-02-28T02:07:41.118Z,95832
2023-02-28T02:08:43.641Z,95836.9
2023-02-28T02:09:46.137Z,95835.3
2023-02-28T02:10:48.646Z,95835.4
2023-02-28T02:11:51.321Z,95834.8
2023-02-28T02:12:53.564Z,95830
2023-02-28T02:13:56.070Z,95834
2023-02-28T02:14:58.651Z,95830.9
2023-02-28T02:16:01.380Z,95831.9
2023-02-28T02:17:03.379Z,95827.3
2023-02-28T02:18:05.359Z,95829.3
2023-02-28T02:19:07.895Z,95824.2
2023-02-28T02:20:10.431Z,95827.3
2023-02-28T02:21:12.648Z,95830.7
2023-02-28T02:22:15.175Z,95832.9
2023-02-28T02:23:17.376Z,95827.1
2023-02-28T02:24:19.584Z,95821
2023-02-28T02:25:22.063Z,95826.4
2023-02-28T02:26:24.570Z,95822.8
2023-02-28T02:27:27.175Z,95821.9
2023-02-28T02:28:29.703Z,95821.4
2023-02-28T02:29:31.976Z,95823.9
2023-02-28T02:30:34.504Z,95825.8
2023-02-28T02:31:37.421Z,95820.7
2023-02-28T02:32:40.026Z,95825
2023-02-28T02:33:42.541Z,95825.9
2023-02-28T02:34:44.817Z,95820.6
2023-02-28T02:35:47.502Z,95816.4
2023-02-28T02:36:50.120Z,95819.7
2023-02-28T02:37:52.624Z,95819.1
2023-02-28T02:38:55.137Z,95820
2023-02-28T02:39:57.362Z,95814.8
2023-02-28T02:40:59.613Z,95816.4
2023-02-28T02:42:02.131Z,95816.3
2023-02-28T02:43:04.790Z,95811.5
2023-02-28T02:44:07.326Z,95815
2023-02-28T02:45:09.268Z,95811.3
2023-02-28T02:46:11.767Z,95814.1
2023-02-28T02:47:13.994Z,95810.8
2023-02-28T02:48:16.276Z,95810
2023-02-28T02:49:18.501Z,95807.7
2023-02-28T02:50:20.469Z,95809.4
2023-02-28T02:51:22.988Z,95806.6
2023-02-28T02:52:25.530Z,95806.6
2023-02-28T02:53:28.008Z,95809.2
2023-02-28T02:54:30.347Z,95805.8
2023-02-28T02:55:32.251Z,95810.4
2023-02-28T02:56:34.858Z,95805.9
2023-02-28T02:57:37.113Z,95802.8
2023-02-28T02:58:39.423Z,95808.2
2023-02-28T02:59:41.953Z,95809.2
2023-02-28T03:00:44.626Z,95806.4
2023-02-28T03:01:47.162Z,95807.2
2023-02-28T03:02:49.669Z,95810.2
2023-02-28T03:03:52.392Z,95808.3
2023-02-28T03:04:55.021Z,95810
2023-02-28T03:05:57.514Z,95808.5
2023-02-28T03:06:59.781Z,95802.4
2023-02-28T03:08:02.007Z,95808.5
2023-02-28T03:09:04.214Z,95810.4
2023-02-28T03:10:06.738Z,95806.5
2023-02-28T03:11:08.952Z,95809.4
2023-02-28T03:12:11.513Z,95806.7
2023-02-28T03:13:14.026Z,95809.1
2023-02-28T03:14:16.656Z,95807.2
2023-02-28T03:15:19.204Z,95813.5
2023-02-28T03:16:21.611Z,95811.6
2023-02-28T03:17:23.393Z,95816.5
2023-02-28T03:18:25.928Z,95817.2
2023-02-28T03:19:28.443Z,95818.9
2023-02-28T03:20:31.238Z,95822.1
2023-02-28T03:21:33.802Z,95821.4
2023-02-28T03:22:36.298Z,95820.4
2023-02-28T03:23:38.803Z,95823.9
2023-02-28T03:24:41.018Z,95819.7
2023-02-28T03:25:43.490Z,95820.3
2023-02-28T03:26:46.014Z,95819.7
2023-02-28T03:27:48.267Z,95819.3
2023-02-28T03:28:50.512Z,95818.3
2023-02-28T03:29:52.812Z,95821
2023-02-28T03:30:55.509Z,95816.2
2023-02-28T03:31:58.166Z,95816.7
2023-02-28T03:33:00.878Z,95821.8
2023-02-28T03:34:03.364Z,95820
2023-02-28T03:35:05.708Z,95820
2023-02-28T03:36:07.950Z,95818
2023-02-28T03:37:10.753Z,95819.7
2023-02-28T03:38:13.336Z,95821.9
2023-02-28T03:39:15.829Z,95821.3
2023-02-28T03:40:18.315Z,95820.8
2023-02-28T03:41:20.814Z,95822.7
2023-02-28T03:42:23.311Z,95818.5
2023-02-28T03:43:25.857Z,95817.8
2023-02-28T03:44:28.399Z,95818.1
2023-02-28T03:45:31.261Z,95817.4
2023-02-28T03:46:33.840Z,95817.5
2023-02-28T03:47:36.108Z,95817.6
2023-02-28T03:48:38.318Z,95815.8
2023-02-28T03:49:40.837Z,95817.1
2023-02-28T03:50:43.372Z,95814.1
2023-02-28T03:51:45.886Z,95817.9
2023-02-28T03:52:48.108Z,95819
2023-02-28T03:53:50.325Z,95817.2
2023-02-28T03:54:52.845Z,95816.2
2023-02-28T03:55:55.356Z,95816.3
2023-02-28T03:56:57.857Z,95818
2023-02-28T03:58:00.370Z,95820
2023-02-28T03:59:03.214Z,95823
2023-02-28T04:00:05.632Z,95826.9
2023-02-28T04:01:08.323Z,95826.3
2023-02-28T04:02:10.962Z,95824.3
2023-02-28T04:03:13.245Z,95827.2
2023-02-28T04:04:15.968Z,95829.4
2023-02-28T04:05:18.258Z,95828
2023-02-28T04:06:20.876Z,95832.4
2023-02-28T04:07:23.368Z,95834.1
2023-02-28T04:08:25.867Z,95834.9
2023-02-28T04:09:28.383Z,95838.1
2023-02-28T04:10:30.879Z,95838.8
2023-02-28T04:11:33.484Z,95843.4
2023-02-28T04:12:35.993Z,95845.9
2023-02-28T04:13:38.501Z,95854
2023-02-28T04:14:40.716Z,95851
2023-02-28T04:15:43.425Z,95859.9
2023-02-28T04:16:45.947Z,95854.8
2023-02-28T04:17:48.633Z,95858.1
2023-02-28T04:18:51.126Z,95860.2
2023-02-28T04:19:53.370Z,95857.7
2023-02-28T04:20:55.593Z,95865.5
2023-02-28T04:21:58.118Z,95862.5
2023-02-28T04:23:00.331Z,95860.9
2023-02-28T04:24:02.884Z,95860.2
2023-02-28T04:25:05.422Z,95863.5
2023-02-28T04:26:07.649Z,95859.6
2023-02-28T04:27:09.864Z,95861.7
2023-02-28T04:28:12.375Z,95857
2023-02-28T04:29:14.979Z,95858.1
2023-02-28T04:30:17.492Z,95855.7
2023-02-28T04:31:19.818Z,95858.4
2023-02-28T04:32:23.030Z,95856.2
2023-02-28T04:33:25.601Z,95852
2023-02-28T04:34:28.160Z,95856.9
2023-02-28T04:35:30.899Z,95852.2
2023-02-28T04:36:33.444Z,95853.5
2023-02-28T04:37:35.692Z,95851.1
2023-02-28T04:38:37.931Z,95847.2
2023-02-28T04:39:40.590Z,95849.7
2023-02-28T04:40:43.134Z,95852.9
2023-02-28T04:41:45.625Z,95853.5
2023-02-28T04:42:48.152Z,95853.9
2023-02-28T04:43:50.156Z,95854.5
2023-02-28T04:44:52.658Z,95851.1
2023-02-28T04:45:55.504Z,95850.3
2023-02-28T04:46:58.087Z,95854.9
2023-02-28T04:48:00.707Z,95857.5
2023-02-28T04:49:03.227Z,95861.3
2023-02-28T04:50:05.744Z,95862.1
2023-02-28T04:51:07.992Z,95861.6
2023-02-28T04:52:10.658Z,95863.6
2023-02-28T04:53:12.877Z,95857.7
2023-02-28T04:54:15.091Z,95863
2023-02-28T04:55:17.615Z,95860.5
2023-02-28T04:56:20.169Z,95862.6
2023-02-28T04:57:22.429Z,95860.7
2023-02-28T04:58:24.962Z,95861
2023-02-28T04:59:27.189Z,95859.4
2023-02-28T05:00:29.680Z,95862.7
2023-02-28T05:01:32.994Z,95864.1
2023-02-28T05:02:35.601Z,95866.5
2023-02-28T05:03:38.016Z,95865
2023-02-28T05:04:40.809Z,95864.7
2023-02-28T05:05:43.146Z,95866.1
2023-02-28T05:06:45.692Z,95870.4
2023-02-28T05:07:47.936Z,95866.4
2023-02-28T05:08:50.499Z,95871.2
2023-02-28T05:09:53.035Z,95872.2
2023-02-28T05:10:55.572Z,95868.5
2023-02-28T05:11:57.787Z,95866.3
2023-02-28T05:13:00.317Z,95870.7
2023-02-28T05:14:02.256Z,95872.3
2023-02-28T05:15:04.843Z,95871.1
2023-02-28T05:16:07.580Z,95870.2
2023-02-28T05:17:09.849Z,95868.4
2023-02-28T05:18:12.380Z,95874.4
2023-02-28T05:19:14.702Z,95868.8
2023-02-28T05:20:17.992Z,95873.3
2023-02-28T05:21:20.188Z,95872.6
2023-02-28T05:22:22.410Z,95873.3
2023-02-28T05:23:24.330Z,95871.1
2023-02-28T05:24:26.919Z,95872.6
2023-02-28T05:25:29.454Z,95875.9
2023-02-28T05:26:31.978Z,95875
2023-02-28T05:27:34.206Z,95875
2023-02-28T05:28:36.735Z,95875.9
2023-02-28T05:29:39.246Z,95873
2023-02-28T05:30:41.802Z,95876
2023-02-28T05:31:44.383Z,95874.6
2023-02-28T05:32:46.694Z,95874.6
2023-02-28T05:33:49.215Z,95873.1
2023-02-28T05:34:51.857Z,95876.4
2023-02-28T05:35:54.231Z,95873.5
2023-02-28T05:36:56.839Z,95875.4
2023-02-28T05:37:59.356Z,95876.3
2023-02-28T05:39:01.629Z,95874
2023-02-28T05:40:03.891Z,95878.8
2023-02-28T05:41:06.116Z,95879.2
2023-02-28T05:42:08.610Z,95879.3
2023-02-28T05:43:10.838Z,95878.5
2023-02-28T05:44:13.139Z,95880.4
2023-02-28T05:45:17.391Z,95878.8
2023-02-28T05:46:19.934Z,95883.3
2023-02-28T05:47:22.196Z,95881
2023-02-28T05:48:24.844Z,95881
2023-02-28T05:49:27.461Z,95875.2
2023-02-28T05:50:30.049Z,95876.6
2023-02-28T05:51:33.842Z,95878.8
2023-02-28T05:52:36.400Z,95876.2
2023-02-28T05:53:38.720Z,95878.6
2023-02-28T05:54:40.956Z,95878.3
2023-02-28T05:55:43.224Z,95875.2
2023-02-28T05:56:45.214Z,95873
2023-02-28T05:57:47.724Z,95879.4
2023-02-28T05:58:49.684Z,95881.8
2023-02-28T05:59:51.938Z,95880.2
2023-02-28T06:00:54.178Z,95884.2
2023-02-28T06:01:56.864Z,95890.8
2023-02-28T06:02:59.324Z,95885.3
2023-02-28T06:04:01.981Z,95888.5
2023-02-28T06:05:04.512Z,95891.4
2023-02-28T06:06:07.191Z,95894.1
2023-02-28T06:07:09.747Z,95888.7
2023-02-28T06:08:12.259Z,95901.1
2023-02-28T06:09:14.760Z,95899.5
2023-02-28T06:10:17.272Z,95894.2
2023-02-28T06:11:19.500Z,95898.3
2023-02-28T06:12:22.008Z,95900.3
2023-02-28T06:13:24.528Z,95899.2
2023-02-28T06:14:27.045Z,95904.2
2023-02-28T06:15:29.570Z,95902.4
2023-02-28T06:16:32.285Z,95900.4
2023-02-28T06:17:34.806Z,95903
2023-02-28T06:18:37.344Z,95905
2023-02-28T06:19:39.544Z,95901.1
2023-02-28T06:20:41.496Z,95898.7
2023-02-28T06:21:44.141Z,95900.3
2023-02-28T06:22:46.408Z,95896.6
2023-02-28T06:23:48.949Z,95895.4
2023-02-28T06:24:51.175Z,95897.7
2023-02-28T06:25:53.665Z,95904.5
2023-02-28T06:26:55.893Z,95897
2023-02-28T06:27:57.843Z,95898.9
2023-02-28T06:29:00.381Z,95898.8
2023-02-28T06:30:02.866Z,95901.8
2023-02-28T06:31:05.611Z,95903.7
2023-02-28T06:32:08.128Z,95901.8
2023-02-28T06:33:10.773Z,95901.5
2023-02-28T06:34:13.263Z,95906
2023-02-28T06:35:15.490Z,95914.3
2023-02-28T06:36:17.986Z,95912.7
2023-02-28T06:37:20.616Z,95916.7
2023-02-28T06:38:23.128Z,95917.8
2023-02-28T06:39:25.658Z,95917.3
2023-02-28T06:40:27.880Z,95922.4
2023-02-28T06:42:37.363Z,95919.1
2023-02-28T06:43:39.870Z,95922.2
2023-02-28T06:44:42.413Z,95925.6
2023-02-28T06:45:44.380Z,95926.9
2023-02-28T06:46:46.907Z,95926.6
2023-02-28T06:47:49.206Z,95927.9
2023-02-28T06:48:51.744Z,95930.2
2023-02-28T06:49:54.252Z,95932.4
2023-02-28T06:50:56.753Z,95938.5
2023-02-28T06:51:58.980Z,95939.2
2023-02-28T06:53:01.596Z,95941.3
2023-02-28T06:54:03.834Z,95941.6
2023-02-28T06:55:05.788Z,95939.2
2023-02-28T06:56:08.335Z,95942.3
2023-02-28T06:57:10.575Z,95943.5
2023-02-28T06:58:13.084Z,95944.1
2023-02-28T06:59:15.590Z,95946.5
2023-02-28T07:00:17.835Z,95941.5
2023-02-28T07:01:20.489Z,95942
2023-02-28T07:02:22.802Z,95938.3
2023-02-28T07:03:25.427Z,95941.3
2023-02-28T07:04:28.118Z,95938.7
2023-02-28T07:05:30.746Z,95937.8
2023-02-28T07:06:33.367Z,95944.1
2023-02-28T07:07:35.926Z,95946.1
2023-02-28T07:08:38.599Z,95946.7
2023-02-28T07:09:41.148Z,95947
2023-02-28T07:10:43.103Z,95948.2
2023-02-28T07:11:45.602Z,95952.5
2023-02-28T07:12:48.089Z,95951.3
2023-02-28T07:13:50.052Z,95946.5
2023-02-28T07:14:52.291Z,95955.6
2023-02-28T07:15:54.502Z,95952
2023-02-28T07:16:57.075Z,95953.1
2023-02-28T07:17:59.320Z,95955.5
2023-02-28T07:19:01.818Z,95952.6
2023-02-28T07:20:04.359Z,95953.8
2023-02-28T07:21:06.866Z,95954.7
2023-02-28T07:22:09.094Z,95951.6
2023-02-28T07:23:11.591Z,95954.2
2023-02-28T07:24:14.215Z,95958.3
2023-02-28T07:25:16.775Z,95959.3
2023-02-28T07:26:19.230Z,95959.4
2023-02-28T07:27:21.731Z,95958.3
2023-02-28T07:28:23.985Z,95960.3
2023-02-28T07:29:26.490Z,95956.9
2023-02-28T07:30:28.404Z,95956.4
2023-02-28T07:31:32.771Z,95958.9
2023-02-28T07:32:35.513Z,95952.5
2023-02-28T07:33:37.481Z,95951.7
2023-02-28T07:34:39.991Z,95953.2
2023-02-28T07:35:42.458Z,95953.8
2023-02-28T07:36:45.048Z,95952.5
2023-02-28T07:37:47.278Z,95951.5
2023-02-28T07:38:50.209Z,95954.7
2023-02-28T07:39:52.545Z,95952.7
2023-02-28T07:40:55.051Z,95949.6
2023-02-28T07:41:57.604Z,95946.1
2023-02-28T07:42:59.541Z,95945.9
2023-02-28T07:44:02.196Z,95947
2023-02-28T07:45:04.748Z,95943
2023-02-28T07:46:07.213Z,95953.5
2023-02-28T07:47:09.518Z,95951.3
2023-02-28T07:48:11.944Z,95953.4
2023-02-28T07:49:14.558Z,95951
2023-02-28T07:50:16.878Z,95955.2
2023-02-28T07:51:19.393Z,95950.4
2023-02-28T07:52:21.650Z,95949.9
2023-02-28T07:53:24.148Z,95950.8
2023-02-28T07:54:26.119Z,95946.3
2023-02-28T07:55:28.800Z,95949.8
2023-02-28T07:56:33.026Z,95947.4
2023-02-28T07:57:34.798Z,95948
2023-02-28T07:58:37.332Z,95946.9
2023-02-28T07:59:39.639Z,95944.7
2023-02-28T08:00:42.088Z,95957.5
2023-02-28T08:01:44.917Z,95954.2
2023-02-28T08:02:46.662Z,95950.4
2023-02-28T08:03:49.199Z,95954
2023-02-28T08:04:51.669Z,95952.3
2023-02-28T08:05:54.344Z,95955.6
2023-02-28T08:06:56.338Z,95950.1
2023-02-28T08:07:58.564Z,95954.9
2023-02-28T08:09:00.511Z,95959.1
2023-02-28T08:10:02.820Z,95959
2023-02-28T08:11:05.496Z,95963.9
2023-02-28T08:12:08.044Z,95965.8
2023-02-28T08:13:10.016Z,95969.1
2023-02-28T08:14:12.540Z,95963.2
2023-02-28T08:15:15.039Z,95970.5
2023-02-28T08:16:17.632Z,95968.9
2023-02-28T08:17:20.373Z,95966.2
2023-02-28T08:18:22.910Z,95964.7
2023-02-28T08:19:25.578Z,95968.2
2023-02-28T08:20:28.068Z,95971.8
2023-02-28T08:21:31.638Z,95975.9
2023-02-28T08:22:34.345Z,95974.5
2023-02-28T08:23:36.879Z,95973.9
2023-02-28T08:24:39.389Z,95975.2
2023-02-28T08:25:41.927Z,95975
2023-02-28T08:26:44.546Z,95974.2
2023-02-28T08:27:46.858Z,95978.3
2023-02-28T08:28:49.402Z,95982.6
2023-02-28T08:29:51.631Z,95983.8
2023-02-28T08:30:54.147Z,95976.4
2023-02-28T08:31:57.105Z,95980.2
2023-02-28T08:32:59.588Z,95983.2
2023-02-28T08:34:01.919Z,95977.5
2023-02-28T08:35:04.176Z,95978.2
2023-02-28T08:36:06.994Z,95979.4
2023-02-28T08:37:09.718Z,95985.6
2023-02-28T08:38:12.225Z,95980
2023-02-28T08:39:14.538Z,95981.1
2023-02-28T08:40:16.774Z,95977.8
2023-02-28T08:41:19.025Z,95983.5
2023-02-28T08:42:21.524Z,95987.1
2023-02-28T08:43:23.785Z,95993.3
2023-02-28T08:44:26.280Z,95989.9
2023-02-28T08:45:29.088Z,95995.5
2023-02-28T08:46:31.372Z,95988.7
2023-02-28T08:47:33.891Z,95990.8
2023-02-28T08:48:36.171Z,95985.6
2023-02-28T08:49:38.371Z,95989.8
2023-02-28T08:50:40.618Z,95992.1
2023-02-28T08:51:43.157Z,95997.5
2023-02-28T08:52:45.417Z,95990.2
2023-02-28T08:53:47.976Z,95997.2
2023-02-28T08:54:50.527Z,95990.7
2023-02-28T08:55:53.047Z,95994.2
2023-02-28T08:56:55.541Z,95991.3
2023-02-28T08:57:58.177Z,95996.1
2023-02-28T08:59:00.446Z,95991.6
2023-02-28T09:00:02.968Z,95991.3
2023-02-28T09:01:05.313Z,95992.8
2023-02-28T09:02:07.895Z,95993.6
2023-02-28T09:03:10.119Z,95988.8
2023-02-28T09:04:13.767Z,95993.3
2023-02-28T09:05:19.802Z,95992.2
2023-02-28T09:06:21.811Z,95994.5
2023-02-28T09:07:24.057Z,95994
2023-02-28T09:08:26.612Z,95993.7
2023-02-28T09:09:29.154Z,95993.7
2023-02-28T09:10:31.659Z,95994.8
2023-02-28T09:11:34.182Z,95998.8
2023-02-28T09:12:36.430Z,95998.1
2023-02-28T09:13:39.145Z,95992.9
2023-02-28T09:14:41.675Z,95993
2023-02-28T09:15:43.680Z,95993.7
2023-02-28T09:16:46.439Z,95993.9
2023-02-28T09:17:50.199Z,95996.1
2023-02-28T09:18:52.163Z,95996.9
2023-02-28T09:19:54.698Z,95999.3
2023-02-28T09:20:57.206Z,95999
2023-02-28T09:21:59.440Z,96001.4
2023-02-28T09:23:01.698Z,96005.1
2023-02-28T09:24:03.681Z,95999.4
2023-02-28T09:25:06.187Z,96001.5
2023-02-28T09:26:08.434Z,96007.9
2023-02-28T09:27:12.293Z,96006.2
2023-02-28T09:28:14.822Z,96010.7
2023-02-28T09:29:17.422Z,96008.8
2023-02-28T09:30:19.711Z,96009.5
2023-02-28T09:31:22.714Z,96010.1
2023-02-28T09:32:25.234Z,96007.5
2023-02-28T09:33:27.593Z,96009.5
2023-02-28T09:34:29.847Z,96009.2
2023-02-28T09:35:32.488Z,96010.8
2023-02-28T09:37:39.176Z,96018.3
2023-02-28T09:38:41.126Z,96016.6
2023-02-28T09:39:43.646Z,96018.4
2023-02-28T09:40:45.605Z,96018.2
2023-02-28T09:41:47.564Z,96019.5
2023-02-28T09:42:49.830Z,96027.7
2023-02-28T09:43:51.773Z,96020.6
2023-02-28T09:44:54.133Z,96024.8
2023-02-28T09:45:56.761Z,96025.3
2023-02-28T09:46:59.052Z,96028
2023-02-28T09:48:01.329Z,96024.4
2023-02-28T09:49:03.585Z,96026.4
2023-02-28T09:50:06.130Z,96026.7
2023-02-28T09:51:08.644Z,96032.4
2023-02-28T09:52:11.197Z,96032.5
2023-02-28T09:53:13.454Z,96036.6
2023-02-28T09:54:15.990Z,96035.5
2023-02-28T09:55:18.233Z,96039.5
2023-02-28T09:56:20.472Z,96037.1
2023-02-28T09:57:22.989Z,96036
2023-02-28T09:58:25.263Z,96032.5
2023-02-28T09:59:27.789Z,96034
2023-02-28T10:00:30.475Z,96040.5
2023-02-28T10:01:34.428Z,96040.4
2023-02-28T10:02:37.117Z,96037.7
2023-02-28T10:03:39.622Z,96039.7
2023-02-28T10:04:42.123Z,96037.4
2023-02-28T10:05:45.892Z,96039.3
2023-02-28T10:06:48.139Z,96037.2
2023-02-28T10:07:50.382Z,96037.7
2023-02-28T10:08:52.900Z,96037.9
2023-02-28T10:09:55.433Z,96032.9
2023-02-28T10:10:58.115Z,96039.8
2023-02-28T10:12:00.420Z,96035.3
2023-02-28T10:13:02.666Z,96033.5
2023-02-28T10:14:05.170Z,96039.2
2023-02-28T10:15:07.688Z,96041.3
2023-02-28T10:16:10.604Z,96041.1
2023-02-28T10:17:13.164Z,96039.8
2023-02-28T10:18:15.683Z,96044.5
2023-02-28T10:19:17.922Z,96049.1
2023-02-28T10:20:20.465Z,96048.9
2023-02-28T10:21:23.232Z,96043
2023-02-28T10:22:25.513Z,96046.2
2023-02-28T10:23:27.781Z,96046.7
2023-02-28T10:24:30.303Z,96051
2023-02-28T10:25:32.557Z,96046.8
2023-02-28T10:26:35.112Z,96055.5
2023-02-28T10:27:37.343Z,96054.8
2023-02-28T10:28:39.614Z,96058.4
2023-02-28T10:29:41.884Z,96055.9
2023-02-28T10:30:44.100Z,96057.1
2023-02-28T10:31:46.956Z,96057.4
2023-02-28T10:32:49.403Z,96062
2023-02-28T10:33:52.016Z,96064.8
2023-02-28T10:34:54.528Z,96061.9
2023-02-28T10:35:56.918Z,96060.5
2023-02-28T10:36:59.346Z,96063.8
2023-02-28T10:38:01.871Z,96063.4
2023-02-28T10:39:04.410Z,96066.6
2023-02-28T10:40:06.637Z,96061.9
2023-02-28T10:41:09.155Z,96061.8
2023-02-28T10:42:11.469Z,96064.1
2023-02-28T10:43:13.826Z,96065.1
2023-02-28T10:44:16.406Z,96067.5
2023-02-28T10:45:19.047Z,96067
2023-02-28T10:46:21.730Z,96071.6
2023-02-28T10:47:24.466Z,96070.9
2023-02-28T10:48:26.777Z,96068.7
2023-02-28T10:49:29.056Z,96067.7
2023-02-28T10:50:31.634Z,96071.9
2023-02-28T10:51:34.157Z,96070.6
2023-02-28T10:52:36.858Z,96070.7
2023-02-28T10:54:44.364Z,96072.1
2023-02-28T10:55:46.882Z,96072.7
2023-02-28T10:56:49.493Z,96070.8
2023-02-28T10:57:52.015Z,96072.5
2023-02-28T10:58:54.376Z,96073.3
2023-02-28T10:59:56.616Z,96073.6
2023-02-28T11:00:58.573Z,96071.3
2023-02-28T11:02:00.878Z,96077.1
2023-02-28T11:03:03.370Z,96075
2023-02-28T11:04:05.948Z,96076.3
2023-02-28T11:05:08.442Z,96080.5
2023-02-28T11:06:11.057Z,96078.3
2023-02-28T11:07:13.297Z,96080.1
2023-02-28T11:08:15.865Z,96080.3
2023-02-28T11:09:18.194Z,96082.8
2023-02-28T11:10:20.688Z,96082
2023-02-28T11:11:23.202Z,96082
2023-02-28T11:12:26.154Z,96081.8
2023-02-28T11:13:28.434Z,96083.9
2023-02-28T11:14:30.138Z,96076.5
2023-02-28T11:15:32.694Z,96083.2
2023-02-28T11:16:34.940Z,96081.9
2023-02-28T11:17:37.180Z,96083.1
2023-02-28T11:18:39.509Z,96080.7
2023-02-28T11:19:42.067Z,96082.3
2023-02-28T11:20:44.578Z,96082.4
2023-02-28T11:21:47.114Z,96082
2023-02-28T11:22:49.342Z,96081
2023-02-28T11:23:51.316Z,96077.1
2023-02-28T11:24:53.867Z,96075
2023-02-28T11:25:56.150Z,96073.9
2023-02-28T11:26:58.661Z,96075.2
2023-02-28T11:28:01.217Z,96072.2
2023-02-28T11:29:03.715Z,96073
2023-02-28T11:30:06.363Z,96071.5
2023-02-28T11:31:08.807Z,96070.8
2023-02-28T11:32:11.920Z,96072.3
2023-02-28T11:33:14.703Z,96068.8
2023-02-28T11:34:17.326Z,96067.9
2023-02-28T11:35:19.565Z,96064.6
2023-02-28T11:36:22.669Z,96065.5
2023-02-28T11:37:25.250Z,96068.9
2023-02-28T11:38:27.812Z,96069.8
2023-02-28T11:39:30.305Z,96070.1
2023-02-28T11:40:32.852Z,96066
2023-02-28T11:41:35.363Z,96065.2
2023-02-28T11:42:37.932Z,96064.1
2023-02-28T11:43:40.181Z,96065.9
2023-02-28T11:44:42.722Z,96064.4
2023-02-28T11:45:44.797Z,96066.2
2023-02-28T11:46:47.654Z,96062.8
2023-02-28T11:47:50.608Z,96059.4
2023-02-28T11:48:53.155Z,96060.5
2023-02-28T11:49:55.811Z,96056.8
2023-02-28T11:50:58.347Z,96056.9
2023-02-28T11:52:00.882Z,96052
2023-02-28T11:53:03.401Z,96049.5
2023-02-28T11:54:05.701Z,96053.5
2023-02-28T11:55:08.219Z,96046.3
2023-02-28T11:56:10.163Z,96043.6
2023-02-28T11:57:12.658Z,96046.4
2023-02-28T11:58:14.318Z,96046.3
2023-02-28T11:59:16.282Z,96042.7
2023-02-28T12:00:18.830Z,96044.5
2023-02-28T12:01:20.803Z,96040.6
2023-02-28T12:02:23.713Z,96042.6
2023-02-28T12:03:26.527Z,96042
2023-02-28T12:04:28.890Z,96040.8
2023-02-28T12:05:31.560Z,96039.9
2023-02-28T12:06:34.127Z,96041
2023-02-28T12:07:36.409Z,96039.7
2023-02-28T12:08:38.919Z,96038.1
2023-02-28T12:09:41.154Z,96043.6
2023-02-28T12:10:43.703Z,96037.9
2023-02-28T12:11:45.685Z,96039.7
2023-02-28T12:12:48.239Z,96036.4
2023-02-28T12:13:50.741Z,96032.6
2023-02-28T12:14:52.770Z,96032
2023-02-28T12:15:55.267Z,96042.3
2023-02-28T12:16:57.520Z,96031.5
2023-02-28T12:18:00.106Z,96032.2
2023-02-28T12:19:02.700Z,96031.8
2023-02-28T12:20:05.269Z,96033.7
2023-02-28T12:21:07.919Z,96031.7
2023-02-28T12:22:10.458Z,96030.4
2023-02-28T12:23:12.724Z,96027.5
2023-02-28T12:24:15.241Z,96024.8
2023-02-28T12:25:17.592Z,96022
2023-02-28T12:26:19.881Z,96024.4
2023-02-28T12:27:26.022Z,96024.5
2023-02-28T12:28:29.560Z,96019.4
2023-02-28T12:29:31.818Z,96018.2
2023-02-28T12:30:33.876Z,96017.9
2023-02-28T12:31:36.153Z,96016.1
2023-02-28T12:32:38.921Z,96016.9
2023-02-28T12:33:41.063Z,96016.2
2023-02-28T12:34:43.310Z,96016.2
2023-02-28T12:35:45.721Z,96011.2
2023-02-28T12:36:48.468Z,96016.1
2023-02-28T12:37:51.005Z,96013.6
2023-02-28T12:38:54.263Z,96011.4
2023-02-28T12:39:57.142Z,96014.4
2023-02-28T12:40:59.402Z,96008.8
2023-02-28T12:42:01.678Z,96008.3
2023-02-28T12:43:04.186Z,96005.3
2023-02-28T12:44:06.423Z,96007.2